sensor_id;sensor_type;location;lat;lon;timestamp;temperature;humidity
11599;DHT22;5855;48.840;9.188;2023-02-10T00:01:10;-4.00;99.90
11599;DHT22;5855;48.840;9.188;2023-02-10T00:03:37;-4.10;99.90
11599;DHT22;5855;48.840;9.188;2023-02-10T00:06:06;-4.00;99.90
11599;DHT22;5855;48.840;9.188;2023-02-10T00:08:34;-3.90;99.90
11599;DHT22;5855;48.840;9.188;2023-02-10T00:11:03;-3.90;99.90
11599;DHT22;5855;48.840;9.188;2023-02-10T00:13:31;-3.90;99.90
11599;DHT22;5855;48.840;9.188;2023-02-10T00:15:58;-3.80;99.90
11599;DHT22;5855;48.840;9.188;2023-02-10T00:18:27;-3.90;99.90
11599;DHT22;5855;48.840;9.188;2023-02-10T00:20:54;-4.00;99.90
11599;DHT22;5855;48.840;9.188;2023-02-10T00:23:21;-4.00;99.90
11599;DHT22;5855;48.840;9.188;2023-02-10T00:25:49;-4.10;99.90
11599;DHT22;5855;48.840;9.188;2023-02-10T00:28:16;-4.10;99.90
11599;DHT22;5855;48.840;9.188;2023-02-10T00:30:42;-4.00;99.90
11599;DHT22;5855;48.840;9.188;2023-02-10T00:33:09;-3.90;99.90
11599;DHT22;5855;48.840;9.188;2023-02-10T00:35:36;-3.80;99.90
11599;DHT22;5855;48.840;9.188;2023-02-10T00:38:03;-3.80;99.90
11599;DHT22;5855;48.840;9.188;2023-02-10T00:40:30;-3.80;99.90
11599;DHT22;5855;48.840;9.188;2023-02-10T00:42:58;-3.90;99.90
11599;DHT22;5855;48.840;9.188;2023-02-10T00:45:25;-4.00;99.90
11599;DHT22;5855;48.840;9.188;2023-02-10T00:47:52;-4.10;99.90
11599;DHT22;5855;48.840;9.188;2023-02-10T00:50:19;-4.20;99.90
11599;DHT22;5855;48.840;9.188;2023-02-10T00:52:46;-4.30;99.90
11599;DHT22;5855;48.840;9.188;2023-02-10T00:55:13;-4.40;99.90
11599;DHT22;5855;48.840;9.188;2023-02-10T00:57:39;-4.40;99.90
11599;DHT22;5855;48.840;9.188;2023-02-10T01:00:09;-4.50;99.90
11599;DHT22;5855;48.840;9.188;2023-02-10T01:02:36;-4.30;99.90
11599;DHT22;5855;48.840;9.188;2023-02-10T01:05:03;-4.30;99.90
11599;DHT22;5855;48.840;9.188;2023-02-10T01:07:30;-4.40;99.90
11599;DHT22;5855;48.840;9.188;2023-02-10T01:09:56;-4.40;99.90
11599;DHT22;5855;48.840;9.188;2023-02-10T01:12:23;-4.50;99.90
11599;DHT22;5855;48.840;9.188;2023-02-10T01:14:50;-4.60;99.90
11599;DHT22;5855;48.840;9.188;2023-02-10T01:17:18;-4.70;99.90
11599;DHT22;5855;48.840;9.188;2023-02-10T01:19:45;-4.70;99.90
11599;DHT22;5855;48.840;9.188;2023-02-10T01:22:13;-4.70;99.90
11599;DHT22;5855;48.840;9.188;2023-02-10T01:24:40;-4.70;99.90
11599;DHT22;5855;48.840;9.188;2023-02-10T01:27:08;-4.70;99.90
11599;DHT22;5855;48.840;9.188;2023-02-10T01:29:35;-4.70;99.90
11599;DHT22;5855;48.840;9.188;2023-02-10T01:32:02;-4.80;99.90
11599;DHT22;5855;48.840;9.188;2023-02-10T01:34:31;-4.80;99.90
11599;DHT22;5855;48.840;9.188;2023-02-10T01:36:58;-4.80;99.90
11599;DHT22;5855;48.840;9.188;2023-02-10T01:39:25;-4.80;99.90
11599;DHT22;5855;48.840;9.188;2023-02-10T01:41:52;-4.80;99.90
11599;DHT22;5855;48.840;9.188;2023-02-10T01:47:24;-4.90;99.90
11599;DHT22;5855;48.840;9.188;2023-02-10T01:49:53;-5.00;99.90
11599;DHT22;5855;48.840;9.188;2023-02-10T01:52:22;-5.00;99.90
11599;DHT22;5855;48.840;9.188;2023-02-10T01:54:55;-5.00;99.90
11599;DHT22;5855;48.840;9.188;2023-02-10T01:57:23;-5.00;99.90
11599;DHT22;5855;48.840;9.188;2023-02-10T01:59:51;-4.90;99.90
11599;DHT22;5855;48.840;9.188;2023-02-10T02:02:18;-4.90;99.90
11599;DHT22;5855;48.840;9.188;2023-02-10T02:04:49;-4.90;99.90
11599;DHT22;5855;48.840;9.188;2023-02-10T02:07:20;-5.00;99.90
11599;DHT22;5855;48.840;9.188;2023-02-10T02:09:49;-5.00;99.90
11599;DHT22;5855;48.840;9.188;2023-02-10T02:12:22;-5.00;99.90
11599;DHT22;5855;48.840;9.188;2023-02-10T02:14:55;-5.00;99.90
11599;DHT22;5855;48.840;9.188;2023-02-10T02:17:30;-4.90;99.90
11599;DHT22;5855;48.840;9.188;2023-02-10T02:20:41;-4.90;99.90
11599;DHT22;5855;48.840;9.188;2023-02-10T02:23:52;-4.90;99.90
11599;DHT22;5855;48.840;9.188;2023-02-10T02:26:41;-4.80;99.90
11599;DHT22;5855;48.840;9.188;2023-02-10T02:32:39;-4.70;99.90
11599;DHT22;5855;48.840;9.188;2023-02-10T02:35:12;-4.70;99.90
11599;DHT22;5855;48.840;9.188;2023-02-10T02:37:41;-4.80;99.90
11599;DHT22;5855;48.840;9.188;2023-02-10T02:40:11;-4.90;99.90
11599;DHT22;5855;48.840;9.188;2023-02-10T02:42:38;-4.90;99.90
11599;DHT22;5855;48.840;9.188;2023-02-10T02:45:08;-4.80;99.90
11599;DHT22;5855;48.840;9.188;2023-02-10T02:47:59;-4.90;99.90
11599;DHT22;5855;48.840;9.188;2023-02-10T02:50:34;-5.00;99.90
11599;DHT22;5855;48.840;9.188;2023-02-10T02:53:11;-5.10;99.90
11599;DHT22;5855;48.840;9.188;2023-02-10T02:55:56;-5.20;99.90
11599;DHT22;5855;48.840;9.188;2023-02-10T02:58:32;-5.20;99.90
11599;DHT22;5855;48.840;9.188;2023-02-10T03:01:02;-5.30;99.90
11599;DHT22;5855;48.840;9.188;2023-02-10T03:03:34;-5.30;99.90
11599;DHT22;5855;48.840;9.188;2023-02-10T03:06:02;-5.30;99.90
11599;DHT22;5855;48.840;9.188;2023-02-10T03:08:32;-5.30;99.90
11599;DHT22;5855;48.840;9.188;2023-02-10T03:11:00;-5.20;99.90
11599;DHT22;5855;48.840;9.188;2023-02-10T03:13:27;-5.20;99.90
11599;DHT22;5855;48.840;9.188;2023-02-10T03:15:54;-5.10;99.90
11599;DHT22;5855;48.840;9.188;2023-02-10T03:18:21;-5.20;99.90
11599;DHT22;5855;48.840;9.188;2023-02-10T03:20:50;-5.20;99.90
11599;DHT22;5855;48.840;9.188;2023-02-10T03:23:17;-5.20;99.90
11599;DHT22;5855;48.840;9.188;2023-02-10T03:25:44;-5.20;99.90
11599;DHT22;5855;48.840;9.188;2023-02-10T03:28:11;-5.30;99.90
11599;DHT22;5855;48.840;9.188;2023-02-10T03:30:39;-5.30;99.90
11599;DHT22;5855;48.840;9.188;2023-02-10T03:33:07;-5.30;99.90
11599;DHT22;5855;48.840;9.188;2023-02-10T03:35:35;-5.40;99.90
11599;DHT22;5855;48.840;9.188;2023-02-10T03:38:05;-5.40;99.90
11599;DHT22;5855;48.840;9.188;2023-02-10T03:40:32;-5.50;99.90
11599;DHT22;5855;48.840;9.188;2023-02-10T03:42:59;-5.50;99.90
11599;DHT22;5855;48.840;9.188;2023-02-10T03:45:25;-5.50;99.90
11599;DHT22;5855;48.840;9.188;2023-02-10T03:47:52;-5.50;99.90
11599;DHT22;5855;48.840;9.188;2023-02-10T03:50:20;-5.60;99.90
11599;DHT22;5855;48.840;9.188;2023-02-10T03:52:47;-5.60;99.90
11599;DHT22;5855;48.840;9.188;2023-02-10T03:55:16;-5.60;99.90
11599;DHT22;5855;48.840;9.188;2023-02-10T03:57:45;-5.60;99.90
11599;DHT22;5855;48.840;9.188;2023-02-10T04:00:13;-5.70;99.90
11599;DHT22;5855;48.840;9.188;2023-02-10T04:02:40;-5.80;99.90
11599;DHT22;5855;48.840;9.188;2023-02-10T04:05:08;-5.70;99.90
11599;DHT22;5855;48.840;9.188;2023-02-10T04:07:35;-5.80;99.90
11599;DHT22;5855;48.840;9.188;2023-02-10T04:10:02;-5.80;99.90
11599;DHT22;5855;48.840;9.188;2023-02-10T04:12:31;-5.80;99.90
11599;DHT22;5855;48.840;9.188;2023-02-10T04:14:58;-5.90;99.90
11599;DHT22;5855;48.840;9.188;2023-02-10T04:17:25;-5.90;99.90
11599;DHT22;5855;48.840;9.188;2023-02-10T04:19:52;-5.90;99.90
11599;DHT22;5855;48.840;9.188;2023-02-10T04:22:19;-6.00;99.90
11599;DHT22;5855;48.840;9.188;2023-02-10T04:24:46;-5.90;99.90
11599;DHT22;5855;48.840;9.188;2023-02-10T04:27:13;-6.00;99.90
11599;DHT22;5855;48.840;9.188;2023-02-10T04:29:42;-6.00;99.90
11599;DHT22;5855;48.840;9.188;2023-02-10T04:32:09;-6.00;99.90
11599;DHT22;5855;48.840;9.188;2023-02-10T04:34:36;-6.10;99.90
11599;DHT22;5855;48.840;9.188;2023-02-10T04:37:04;-6.10;99.90
11599;DHT22;5855;48.840;9.188;2023-02-10T04:39:31;-6.10;99.90
11599;DHT22;5855;48.840;9.188;2023-02-10T04:41:58;-6.10;99.90
11599;DHT22;5855;48.840;9.188;2023-02-10T04:44:25;-6.10;99.90
11599;DHT22;5855;48.840;9.188;2023-02-10T04:46:54;-6.10;99.90
11599;DHT22;5855;48.840;9.188;2023-02-10T04:49:21;-6.00;99.90
11599;DHT22;5855;48.840;9.188;2023-02-10T04:51:48;-5.90;99.90
11599;DHT22;5855;48.840;9.188;2023-02-10T04:54:16;-5.80;99.90
11599;DHT22;5855;48.840;9.188;2023-02-10T04:56:43;-5.90;99.90
11599;DHT22;5855;48.840;9.188;2023-02-10T04:59:10;-5.90;99.90
11599;DHT22;5855;48.840;9.188;2023-02-10T05:01:37;-5.80;99.90
11599;DHT22;5855;48.840;9.188;2023-02-10T05:04:06;-5.90;99.90
11599;DHT22;5855;48.840;9.188;2023-02-10T05:06:33;-5.90;99.90
11599;DHT22;5855;48.840;9.188;2023-02-10T05:09:00;-6.00;99.90
11599;DHT22;5855;48.840;9.188;2023-02-10T05:11:27;-6.10;99.90
11599;DHT22;5855;48.840;9.188;2023-02-10T05:13:54;-6.00;99.90
11599;DHT22;5855;48.840;9.188;2023-02-10T05:16:22;-6.00;99.90
11599;DHT22;5855;48.840;9.188;2023-02-10T05:18:49;-6.00;99.90
11599;DHT22;5855;48.840;9.188;2023-02-10T05:21:17;-6.00;99.90
11599;DHT22;5855;48.840;9.188;2023-02-10T05:23:44;-6.00;99.90
11599;DHT22;5855;48.840;9.188;2023-02-10T05:26:11;-6.00;99.90
11599;DHT22;5855;48.840;9.188;2023-02-10T05:28:38;-6.00;99.90
11599;DHT22;5855;48.840;9.188;2023-02-10T05:31:05;-6.10;99.90
11599;DHT22;5855;48.840;9.188;2023-02-10T05:33:34;-6.10;99.90
11599;DHT22;5855;48.840;9.188;2023-02-10T05:36:01;-6.10;99.90
11599;DHT22;5855;48.840;9.188;2023-02-10T05:38:30;-6.10;99.90
11599;DHT22;5855;48.840;9.188;2023-02-10T05:40:57;-6.10;99.90
11599;DHT22;5855;48.840;9.188;2023-02-10T05:43:24;-6.20;99.90
11599;DHT22;5855;48.840;9.188;2023-02-10T05:45:52;-6.20;99.90
11599;DHT22;5855;48.840;9.188;2023-02-10T05:48:19;-6.20;99.90
11599;DHT22;5855;48.840;9.188;2023-02-10T05:50:49;-6.20;99.90
11599;DHT22;5855;48.840;9.188;2023-02-10T05:53:17;-6.10;99.90
11599;DHT22;5855;48.840;9.188;2023-02-10T05:55:47;-6.10;99.90
11599;DHT22;5855;48.840;9.188;2023-02-10T05:58:14;-6.10;99.90
11599;DHT22;5855;48.840;9.188;2023-02-10T06:00:41;-6.00;99.90
11599;DHT22;5855;48.840;9.188;2023-02-10T06:03:08;-6.00;99.90
11599;DHT22;5855;48.840;9.188;2023-02-10T06:05:35;-6.00;99.90
11599;DHT22;5855;48.840;9.188;2023-02-10T06:08:02;-5.90;99.90
11599;DHT22;5855;48.840;9.188;2023-02-10T06:10:29;-5.80;99.90
11599;DHT22;5855;48.840;9.188;2023-02-10T06:12:57;-5.80;99.90
11599;DHT22;5855;48.840;9.188;2023-02-10T06:15:24;-5.80;99.90
11599;DHT22;5855;48.840;9.188;2023-02-10T06:17:50;-5.80;99.90
11599;DHT22;5855;48.840;9.188;2023-02-10T06:20:17;-5.80;99.90
11599;DHT22;5855;48.840;9.188;2023-02-10T06:22:44;-5.80;99.90
11599;DHT22;5855;48.840;9.188;2023-02-10T06:25:11;-5.80;99.90
11599;DHT22;5855;48.840;9.188;2023-02-10T06:27:38;-5.80;99.90
11599;DHT22;5855;48.840;9.188;2023-02-10T06:30:07;-5.70;99.90
11599;DHT22;5855;48.840;9.188;2023-02-10T06:32:34;-5.70;99.90
11599;DHT22;5855;48.840;9.188;2023-02-10T06:35:01;-5.70;99.90
11599;DHT22;5855;48.840;9.188;2023-02-10T06:37:28;-5.70;99.90
11599;DHT22;5855;48.840;9.188;2023-02-10T06:39:55;-5.70;99.90
11599;DHT22;5855;48.840;9.188;2023-02-10T06:42:22;-5.70;99.90
11599;DHT22;5855;48.840;9.188;2023-02-10T06:44:49;-5.70;99.90
11599;DHT22;5855;48.840;9.188;2023-02-10T06:47:17;-5.80;99.90
11599;DHT22;5855;48.840;9.188;2023-02-10T06:49:44;-5.80;99.90
11599;DHT22;5855;48.840;9.188;2023-02-10T06:52:11;-5.80;99.90
11599;DHT22;5855;48.840;9.188;2023-02-10T06:54:37;-5.90;99.90
11599;DHT22;5855;48.840;9.188;2023-02-10T06:57:04;-5.90;99.90
11599;DHT22;5855;48.840;9.188;2023-02-10T06:59:32;-5.90;99.90
11599;DHT22;5855;48.840;9.188;2023-02-10T07:01:58;-5.90;99.90
11599;DHT22;5855;48.840;9.188;2023-02-10T07:04:29;-6.00;99.90
11599;DHT22;5855;48.840;9.188;2023-02-10T07:06:56;-5.90;99.90
11599;DHT22;5855;48.840;9.188;2023-02-10T07:09:23;-5.90;99.90
11599;DHT22;5855;48.840;9.188;2023-02-10T07:11:50;-5.90;99.90
11599;DHT22;5855;48.840;9.188;2023-02-10T07:14:17;-5.90;99.90
11599;DHT22;5855;48.840;9.188;2023-02-10T07:16:44;-5.80;99.90
11599;DHT22;5855;48.840;9.188;2023-02-10T07:19:10;-5.80;99.90
11599;DHT22;5855;48.840;9.188;2023-02-10T07:21:39;-5.80;99.90
11599;DHT22;5855;48.840;9.188;2023-02-10T07:24:06;-5.70;99.90
11599;DHT22;5855;48.840;9.188;2023-02-10T07:26:33;-5.60;99.90
11599;DHT22;5855;48.840;9.188;2023-02-10T07:29:00;-5.50;99.90
11599;DHT22;5855;48.840;9.188;2023-02-10T07:31:26;-5.40;99.90
11599;DHT22;5855;48.840;9.188;2023-02-10T07:33:53;-5.20;99.90
11599;DHT22;5855;48.840;9.188;2023-02-10T07:36:20;-5.00;99.90
11599;DHT22;5855;48.840;9.188;2023-02-10T07:38:48;-4.90;99.90
11599;DHT22;5855;48.840;9.188;2023-02-10T07:41:15;-4.70;99.90
11599;DHT22;5855;48.840;9.188;2023-02-10T07:43:42;-4.50;99.90
11599;DHT22;5855;48.840;9.188;2023-02-10T07:46:09;-4.40;99.90
11599;DHT22;5855;48.840;9.188;2023-02-10T07:48:36;-4.20;99.90
11599;DHT22;5855;48.840;9.188;2023-02-10T07:51:03;-4.00;99.90
11599;DHT22;5855;48.840;9.188;2023-02-10T07:53:30;-3.80;99.90
11599;DHT22;5855;48.840;9.188;2023-02-10T07:55:59;-3.60;99.90
11599;DHT22;5855;48.840;9.188;2023-02-10T07:58:26;-3.50;99.90
11599;DHT22;5855;48.840;9.188;2023-02-10T08:00:53;-3.30;99.90
11599;DHT22;5855;48.840;9.188;2023-02-10T08:03:20;-3.20;99.90
11599;DHT22;5855;48.840;9.188;2023-02-10T08:05:46;-3.00;99.90
11599;DHT22;5855;48.840;9.188;2023-02-10T08:08:15;-2.90;99.90
11599;DHT22;5855;48.840;9.188;2023-02-10T08:10:41;-2.70;99.90
11599;DHT22;5855;48.840;9.188;2023-02-10T08:13:10;-2.60;99.90
11599;DHT22;5855;48.840;9.188;2023-02-10T08:15:36;-2.40;99.90
11599;DHT22;5855;48.840;9.188;2023-02-10T08:18:03;-2.20;99.90
11599;DHT22;5855;48.840;9.188;2023-02-10T08:20:30;-2.10;99.90
11599;DHT22;5855;48.840;9.188;2023-02-10T08:22:57;-1.90;99.90
11599;DHT22;5855;48.840;9.188;2023-02-10T08:25:25;-1.70;99.90
11599;DHT22;5855;48.840;9.188;2023-02-10T08:27:52;-1.50;99.90
11599;DHT22;5855;48.840;9.188;2023-02-10T08:30:20;-1.30;99.90
11599;DHT22;5855;48.840;9.188;2023-02-10T08:32:47;-1.10;99.90
11599;DHT22;5855;48.840;9.188;2023-02-10T08:35:14;-0.90;99.90
11599;DHT22;5855;48.840;9.188;2023-02-10T08:37:41;-0.70;99.90
11599;DHT22;5855;48.840;9.188;2023-02-10T08:40:08;-0.60;99.90
11599;DHT22;5855;48.840;9.188;2023-02-10T08:42:35;-0.40;99.90
11599;DHT22;5855;48.840;9.188;2023-02-10T08:45:02;-0.30;99.90
11599;DHT22;5855;48.840;9.188;2023-02-10T08:47:30;0.00;99.90
11599;DHT22;5855;48.840;9.188;2023-02-10T08:49:57;0.20;99.90
11599;DHT22;5855;48.840;9.188;2023-02-10T08:52:24;0.30;99.90
11599;DHT22;5855;48.840;9.188;2023-02-10T08:54:50;0.50;99.90
11599;DHT22;5855;48.840;9.188;2023-02-10T08:57:17;0.60;99.90
11599;DHT22;5855;48.840;9.188;2023-02-10T08:59:44;0.90;99.90
11599;DHT22;5855;48.840;9.188;2023-02-10T09:02:11;1.00;99.90
11599;DHT22;5855;48.840;9.188;2023-02-10T09:04:41;1.00;99.90
11599;DHT22;5855;48.840;9.188;2023-02-10T09:07:08;1.20;99.90
11599;DHT22;5855;48.840;9.188;2023-02-10T09:09:38;1.30;99.90
11599;DHT22;5855;48.840;9.188;2023-02-10T09:12:05;1.40;99.90
11599;DHT22;5855;48.840;9.188;2023-02-10T09:14:32;1.40;99.90
11599;DHT22;5855;48.840;9.188;2023-02-10T09:16:59;1.50;99.90
11599;DHT22;5855;48.840;9.188;2023-02-10T09:19:26;1.60;99.90
11599;DHT22;5855;48.840;9.188;2023-02-10T09:21:54;1.70;99.90
11599;DHT22;5855;48.840;9.188;2023-02-10T09:24:22;1.90;99.90
11599;DHT22;5855;48.840;9.188;2023-02-10T09:26:49;2.20;99.90
11599;DHT22;5855;48.840;9.188;2023-02-10T09:29:16;2.30;99.90
11599;DHT22;5855;48.840;9.188;2023-02-10T09:31:42;2.60;99.90
11599;DHT22;5855;48.840;9.188;2023-02-10T09:34:09;2.80;99.90
11599;DHT22;5855;48.840;9.188;2023-02-10T09:36:36;3.10;99.90
11599;DHT22;5855;48.840;9.188;2023-02-10T09:39:04;3.40;99.90
11599;DHT22;5855;48.840;9.188;2023-02-10T09:41:42;3.70;99.90
11599;DHT22;5855;48.840;9.188;2023-02-10T09:44:16;4.00;99.90
11599;DHT22;5855;48.840;9.188;2023-02-10T09:50:03;4.40;99.90
11599;DHT22;5855;48.840;9.188;2023-02-10T09:52:41;4.70;99.90
11599;DHT22;5855;48.840;9.188;2023-02-10T09:55:15;5.00;99.90
11599;DHT22;5855;48.840;9.188;2023-02-10T09:57:44;5.40;99.90
11599;DHT22;5855;48.840;9.188;2023-02-10T10:00:20;5.70;99.90
11599;DHT22;5855;48.840;9.188;2023-02-10T10:02:52;5.80;99.90
11599;DHT22;5855;48.840;9.188;2023-02-10T10:05:23;6.10;99.90
11599;DHT22;5855;48.840;9.188;2023-02-10T10:07:53;6.20;99.90
11599;DHT22;5855;48.840;9.188;2023-02-10T10:10:24;6.20;99.90
11599;DHT22;5855;48.840;9.188;2023-02-10T10:12:53;6.50;99.90
11599;DHT22;5855;48.840;9.188;2023-02-10T10:15:22;6.60;99.90
11599;DHT22;5855;48.840;9.188;2023-02-10T10:17:59;6.90;99.90
11599;DHT22;5855;48.840;9.188;2023-02-10T10:20:36;7.10;99.90
11599;DHT22;5855;48.840;9.188;2023-02-10T10:23:15;7.30;99.90
11599;DHT22;5855;48.840;9.188;2023-02-10T10:25:57;7.60;99.90
11599;DHT22;5855;48.840;9.188;2023-02-10T10:28:41;7.90;99.30
11599;DHT22;5855;48.840;9.188;2023-02-10T10:31:11;8.10;98.30
11599;DHT22;5855;48.840;9.188;2023-02-10T10:33:43;8.40;97.50
11599;DHT22;5855;48.840;9.188;2023-02-10T10:36:14;8.70;97.00
11599;DHT22;5855;48.840;9.188;2023-02-10T10:38:44;9.00;96.80
11599;DHT22;5855;48.840;9.188;2023-02-10T10:41:14;9.40;95.80
11599;DHT22;5855;48.840;9.188;2023-02-10T10:43:45;9.80;94.70
11599;DHT22;5855;48.840;9.188;2023-02-10T10:46:15;10.10;93.40
11599;DHT22;5855;48.840;9.188;2023-02-10T10:48:45;10.50;92.10
11599;DHT22;5855;48.840;9.188;2023-02-10T10:51:12;10.70;91.30
11599;DHT22;5855;48.840;9.188;2023-02-10T10:53:42;11.10;89.90
11599;DHT22;5855;48.840;9.188;2023-02-10T10:56:17;11.20;88.90
11599;DHT22;5855;48.840;9.188;2023-02-10T10:58:47;11.40;86.20
11599;DHT22;5855;48.840;9.188;2023-02-10T11:01:15;11.80;82.90
11599;DHT22;5855;48.840;9.188;2023-02-10T11:03:42;12.20;80.60
11599;DHT22;5855;48.840;9.188;2023-02-10T11:06:11;12.80;79.00
11599;DHT22;5855;48.840;9.188;2023-02-10T11:08:42;13.70;76.40
11599;DHT22;5855;48.840;9.188;2023-02-10T11:11:11;14.70;70.30
11599;DHT22;5855;48.840;9.188;2023-02-10T11:13:48;16.20;60.70
11599;DHT22;5855;48.840;9.188;2023-02-10T11:16:17;17.70;55.60
11599;DHT22;5855;48.840;9.188;2023-02-10T11:18:52;18.70;50.50
11599;DHT22;5855;48.840;9.188;2023-02-10T11:21:19;20.10;45.40
11599;DHT22;5855;48.840;9.188;2023-02-10T11:23:48;20.90;41.40
11599;DHT22;5855;48.840;9.188;2023-02-10T11:26:19;21.60;37.50
11599;DHT22;5855;48.840;9.188;2023-02-10T11:28:48;22.50;35.10
11599;DHT22;5855;48.840;9.188;2023-02-10T11:31:30;23.20;31.90
11599;DHT22;5855;48.840;9.188;2023-02-10T11:34:00;24.20;29.10
11599;DHT22;5855;48.840;9.188;2023-02-10T11:36:35;24.60;27.90
11599;DHT22;5855;48.840;9.188;2023-02-10T11:39:04;25.10;26.20
11599;DHT22;5855;48.840;9.188;2023-02-10T11:41:32;25.20;25.20
11599;DHT22;5855;48.840;9.188;2023-02-10T11:44:01;25.80;24.60
11599;DHT22;5855;48.840;9.188;2023-02-10T11:46:30;26.80;23.20
11599;DHT22;5855;48.840;9.188;2023-02-10T11:48:58;26.40;22.70
11599;DHT22;5855;48.840;9.188;2023-02-10T11:51:26;26.90;21.80
11599;DHT22;5855;48.840;9.188;2023-02-10T11:53:55;27.10;21.00
11599;DHT22;5855;48.840;9.188;2023-02-10T11:56:24;27.80;20.50
11599;DHT22;5855;48.840;9.188;2023-02-10T11:59:19;28.20;20.00
11599;DHT22;5855;48.840;9.188;2023-02-10T12:01:53;29.20;18.70
11599;DHT22;5855;48.840;9.188;2023-02-10T12:07:18;29.60;16.80
11599;DHT22;5855;48.840;9.188;2023-02-10T12:09:52;29.70;16.70
11599;DHT22;5855;48.840;9.188;2023-02-10T12:12:32;29.30;16.10
11599;DHT22;5855;48.840;9.188;2023-02-10T12:15:11;28.90;16.70
11599;DHT22;5855;48.840;9.188;2023-02-10T12:17:45;30.30;15.70
11599;DHT22;5855;48.840;9.188;2023-02-10T12:20:33;31.00;15.10
11599;DHT22;5855;48.840;9.188;2023-02-10T12:23:27;31.00;14.60
11599;DHT22;5855;48.840;9.188;2023-02-10T12:26:00;30.20;14.50
11599;DHT22;5855;48.840;9.188;2023-02-10T12:28:36;31.00;14.40
11599;DHT22;5855;48.840;9.188;2023-02-10T12:31:14;31.10;13.90
11599;DHT22;5855;48.840;9.188;2023-02-10T12:33:54;31.50;13.80
11599;DHT22;5855;48.840;9.188;2023-02-10T12:36:30;32.20;13.10
11599;DHT22;5855;48.840;9.188;2023-02-10T12:39:09;31.40;13.00
11599;DHT22;5855;48.840;9.188;2023-02-10T12:41:47;31.10;13.20
11599;DHT22;5855;48.840;9.188;2023-02-10T12:44:28;31.50;13.10
11599;DHT22;5855;48.840;9.188;2023-02-10T12:47:10;30.90;13.20
11599;DHT22;5855;48.840;9.188;2023-02-10T12:49:52;31.00;13.10
11599;DHT22;5855;48.840;9.188;2023-02-10T12:52:26;31.50;12.70
11599;DHT22;5855;48.840;9.188;2023-02-10T12:55:00;31.60;12.20
11599;DHT22;5855;48.840;9.188;2023-02-10T12:57:37;30.90;12.60
11599;DHT22;5855;48.840;9.188;2023-02-10T13:00:11;30.40;12.90
11599;DHT22;5855;48.840;9.188;2023-02-10T13:02:46;31.40;12.10
11599;DHT22;5855;48.840;9.188;2023-02-10T13:05:19;30.40;11.90
11599;DHT22;5855;48.840;9.188;2023-02-10T13:07:49;30.90;11.70
11599;DHT22;5855;48.840;9.188;2023-02-10T13:10:24;31.80;11.70
11599;DHT22;5855;48.840;9.188;2023-02-10T13:12:53;32.50;11.30
11599;DHT22;5855;48.840;9.188;2023-02-10T13:15:25;32.50;11.00
11599;DHT22;5855;48.840;9.188;2023-02-10T13:17:55;32.60;11.10
11599;DHT22;5855;48.840;9.188;2023-02-10T13:20:40;32.20;10.90
11599;DHT22;5855;48.840;9.188;2023-02-10T13:23:19;31.30;11.70
11599;DHT22;5855;48.840;9.188;2023-02-10T13:26:00;30.10;12.20
11599;DHT22;5855;48.840;9.188;2023-02-10T13:28:37;29.90;12.30
11599;DHT22;5855;48.840;9.188;2023-02-10T13:31:19;29.50;13.10
11599;DHT22;5855;48.840;9.188;2023-02-10T13:33:59;29.90;13.20
11599;DHT22;5855;48.840;9.188;2023-02-10T13:36:28;30.60;12.50
11599;DHT22;5855;48.840;9.188;2023-02-10T13:38:59;30.40;12.20
11599;DHT22;5855;48.840;9.188;2023-02-10T13:41:30;30.20;12.30
11599;DHT22;5855;48.840;9.188;2023-02-10T13:44:19;31.00;12.00
11599;DHT22;5855;48.840;9.188;2023-02-10T13:46:56;31.20;11.90
11599;DHT22;5855;48.840;9.188;2023-02-10T13:49:25;30.90;11.80
11599;DHT22;5855;48.840;9.188;2023-02-10T13:52:03;31.00;11.90
11599;DHT22;5855;48.840;9.188;2023-02-10T13:54:33;30.70;11.90
11599;DHT22;5855;48.840;9.188;2023-02-10T13:57:01;29.50;12.70
11599;DHT22;5855;48.840;9.188;2023-02-10T13:59:36;28.10;13.30
11599;DHT22;5855;48.840;9.188;2023-02-10T14:02:16;29.00;13.50
11599;DHT22;5855;48.840;9.188;2023-02-10T14:04:49;28.80;13.20
11599;DHT22;5855;48.840;9.188;2023-02-10T14:07:32;29.20;13.10
11599;DHT22;5855;48.840;9.188;2023-02-10T14:10:28;29.30;12.80
11599;DHT22;5855;48.840;9.188;2023-02-10T14:12:57;28.90;12.70
11599;DHT22;5855;48.840;9.188;2023-02-10T14:15:26;29.00;12.80
11599;DHT22;5855;48.840;9.188;2023-02-10T14:17:57;29.50;12.70
11599;DHT22;5855;48.840;9.188;2023-02-10T14:20:29;29.70;12.40
11599;DHT22;5855;48.840;9.188;2023-02-10T14:22:57;28.60;12.50
11599;DHT22;5855;48.840;9.188;2023-02-10T14:25:30;28.60;13.10
11599;DHT22;5855;48.840;9.188;2023-02-10T14:27:58;28.60;12.70
11599;DHT22;5855;48.840;9.188;2023-02-10T14:30:38;28.70;12.60
11599;DHT22;5855;48.840;9.188;2023-02-10T14:33:06;29.50;12.60
11599;DHT22;5855;48.840;9.188;2023-02-10T14:35:48;29.60;11.90
11599;DHT22;5855;48.840;9.188;2023-02-10T14:38:20;29.30;12.00
11599;DHT22;5855;48.840;9.188;2023-02-10T14:40:48;29.40;12.00
11599;DHT22;5855;48.840;9.188;2023-02-10T14:43:18;28.80;12.30
11599;DHT22;5855;48.840;9.188;2023-02-10T14:45:46;28.20;12.80
11599;DHT22;5855;48.840;9.188;2023-02-10T14:48:14;26.60;13.40
11599;DHT22;5855;48.840;9.188;2023-02-10T14:50:57;25.50;14.50
11599;DHT22;5855;48.840;9.188;2023-02-10T14:53:24;25.40;14.50
11599;DHT22;5855;48.840;9.188;2023-02-10T14:55:54;24.20;15.20
11599;DHT22;5855;48.840;9.188;2023-02-10T14:58:21;24.30;15.50
11599;DHT22;5855;48.840;9.188;2023-02-10T15:00:58;24.90;15.10
11599;DHT22;5855;48.840;9.188;2023-02-10T15:03:26;25.70;15.40
11599;DHT22;5855;48.840;9.188;2023-02-10T15:05:55;26.20;14.60
11599;DHT22;5855;48.840;9.188;2023-02-10T15:08:31;25.90;14.40
11599;DHT22;5855;48.840;9.188;2023-02-10T15:10:58;25.80;15.00
11599;DHT22;5855;48.840;9.188;2023-02-10T15:13:30;26.10;14.70
11599;DHT22;5855;48.840;9.188;2023-02-10T15:15:58;25.40;14.70
11599;DHT22;5855;48.840;9.188;2023-02-10T15:18:28;25.30;15.10
11599;DHT22;5855;48.840;9.188;2023-02-10T15:20:59;25.30;15.40
11599;DHT22;5855;48.840;9.188;2023-02-10T15:23:27;25.00;15.50
11599;DHT22;5855;48.840;9.188;2023-02-10T15:26:01;25.00;16.00
11599;DHT22;5855;48.840;9.188;2023-02-10T15:28:29;25.20;15.50
11599;DHT22;5855;48.840;9.188;2023-02-10T15:31:13;24.90;15.70
11599;DHT22;5855;48.840;9.188;2023-02-10T15:33:51;24.60;15.80
11599;DHT22;5855;48.840;9.188;2023-02-10T15:36:21;24.30;15.90
11599;DHT22;5855;48.840;9.188;2023-02-10T15:38:52;24.20;16.00
11599;DHT22;5855;48.840;9.188;2023-02-10T15:41:38;23.20;16.80
11599;DHT22;5855;48.840;9.188;2023-02-10T15:44:25;22.20;17.00
11599;DHT22;5855;48.840;9.188;2023-02-10T15:46:54;21.50;17.20
11599;DHT22;5855;48.840;9.188;2023-02-10T15:49:22;20.90;18.00
11599;DHT22;5855;48.840;9.188;2023-02-10T15:51:51;19.90;18.40
11599;DHT22;5855;48.840;9.188;2023-02-10T15:54:21;18.40;19.40
11599;DHT22;5855;48.840;9.188;2023-02-10T15:56:56;16.80;21.20
11599;DHT22;5855;48.840;9.188;2023-02-10T15:59:23;15.30;22.00
11599;DHT22;5855;48.840;9.188;2023-02-10T16:01:53;14.00;23.10
11599;DHT22;5855;48.840;9.188;2023-02-10T16:04:20;13.00;24.50
11599;DHT22;5855;48.840;9.188;2023-02-10T16:06:47;12.20;25.90
11599;DHT22;5855;48.840;9.188;2023-02-10T16:09:16;11.50;27.10
11599;DHT22;5855;48.840;9.188;2023-02-10T16:11:43;10.90;28.00
11599;DHT22;5855;48.840;9.188;2023-02-10T16:14:11;10.40;28.80
11599;DHT22;5855;48.840;9.188;2023-02-10T16:16:51;9.90;30.20
11599;DHT22;5855;48.840;9.188;2023-02-10T16:19:20;9.50;31.30